sensor_id;sensor_type;location;lat;lon;timestamp;temperature;humidity
46488;DHT22;32202;48.780;9.204;2023-04-02T00:00:31;9.30;97.20
46488;DHT22;32202;48.780;9.204;2023-04-02T00:08:00;9.20;97.70
46488;DHT22;32202;48.780;9.204;2023-04-02T00:10:37;9.20;97.80
46488;DHT22;32202;48.780;9.204;2023-04-02T00:15:29;9.10;98.20
46488;DHT22;32202;48.780;9.204;2023-04-02T00:17:55;9.10;98.20
46488;DHT22;32202;48.780;9.204;2023-04-02T00:20:20;9.20;98.10
46488;DHT22;32202;48.780;9.204;2023-04-02T00:22:46;9.10;98.00
46488;DHT22;32202;48.780;9.204;2023-04-02T00:25:13;9.20;98.10
46488;DHT22;32202;48.780;9.204;2023-04-02T00:27:38;9.10;98.00
46488;DHT22;32202;48.780;9.204;2023-04-02T00:30:05;9.20;98.10
46488;DHT22;32202;48.780;9.204;2023-04-02T00:32:32;9.10;98.30
46488;DHT22;32202;48.780;9.204;2023-04-02T00:34:58;9.10;98.40
46488;DHT22;32202;48.780;9.204;2023-04-02T00:37:25;9.10;98.20
46488;DHT22;32202;48.780;9.204;2023-04-02T00:39:57;9.10;98.20
46488;DHT22;32202;48.780;9.204;2023-04-02T00:42:24;9.10;98.30
46488;DHT22;32202;48.780;9.204;2023-04-02T00:44:50;9.10;98.00
46488;DHT22;32202;48.780;9.204;2023-04-02T00:47:20;9.10;98.10
46488;DHT22;32202;48.780;9.204;2023-04-02T00:49:46;9.10;98.10
46488;DHT22;32202;48.780;9.204;2023-04-02T00:52:16;9.10;98.30
46488;DHT22;32202;48.780;9.204;2023-04-02T00:54:44;9.10;98.00
46488;DHT22;32202;48.780;9.204;2023-04-02T00:57:16;9.20;98.20
46488;DHT22;32202;48.780;9.204;2023-04-02T00:59:53;9.20;98.20
46488;DHT22;32202;48.780;9.204;2023-04-02T01:02:22;9.10;98.30
46488;DHT22;32202;48.780;9.204;2023-04-02T01:04:51;9.10;98.30
46488;DHT22;32202;48.780;9.204;2023-04-02T01:07:17;9.20;98.30
46488;DHT22;32202;48.780;9.204;2023-04-02T01:12:22;9.10;98.30
46488;DHT22;32202;48.780;9.204;2023-04-02T01:14:56;9.10;98.50
46488;DHT22;32202;48.780;9.204;2023-04-02T01:17:50;9.20;98.60
46488;DHT22;32202;48.780;9.204;2023-04-02T01:23:00;9.30;98.20
46488;DHT22;32202;48.780;9.204;2023-04-02T01:28:04;9.30;98.10
46488;DHT22;32202;48.780;9.204;2023-04-02T01:30:32;9.30;97.90
46488;DHT22;32202;48.780;9.204;2023-04-02T01:32:58;9.30;97.90
46488;DHT22;32202;48.780;9.204;2023-04-02T01:35:24;9.30;97.70
46488;DHT22;32202;48.780;9.204;2023-04-02T01:37:53;9.40;97.80
46488;DHT22;32202;48.780;9.204;2023-04-02T01:40:25;9.40;97.70
46488;DHT22;32202;48.780;9.204;2023-04-02T01:45:19;9.40;97.70
46488;DHT22;32202;48.780;9.204;2023-04-02T01:47:46;9.40;97.70
46488;DHT22;32202;48.780;9.204;2023-04-02T01:52:38;9.50;96.90
46488;DHT22;32202;48.780;9.204;2023-04-02T01:55:06;9.40;96.90
46488;DHT22;32202;48.780;9.204;2023-04-02T01:57:32;9.40;97.00
46488;DHT22;32202;48.780;9.204;2023-04-02T01:59:58;9.50;97.10
46488;DHT22;32202;48.780;9.204;2023-04-02T02:02:24;9.40;97.10
46488;DHT22;32202;48.780;9.204;2023-04-02T02:04:50;9.40;97.00
46488;DHT22;32202;48.780;9.204;2023-04-02T02:07:17;9.40;96.80
46488;DHT22;32202;48.780;9.204;2023-04-02T02:09:42;9.40;97.10
46488;DHT22;32202;48.780;9.204;2023-04-02T02:12:10;9.40;97.10
46488;DHT22;32202;48.780;9.204;2023-04-02T02:14:38;9.50;97.00
46488;DHT22;32202;48.780;9.204;2023-04-02T02:17:03;9.50;96.80
46488;DHT22;32202;48.780;9.204;2023-04-02T02:19:38;9.50;96.70
46488;DHT22;32202;48.780;9.204;2023-04-02T02:22:19;9.50;96.80
46488;DHT22;32202;48.780;9.204;2023-04-02T02:24:46;9.60;96.60
46488;DHT22;32202;48.780;9.204;2023-04-02T02:30:29;9.60;96.50
46488;DHT22;32202;48.780;9.204;2023-04-02T02:32:40;9.60;96.50
46488;DHT22;32202;48.780;9.204;2023-04-02T02:35:10;9.60;96.30
46488;DHT22;32202;48.780;9.204;2023-04-02T02:37:40;9.60;96.30
46488;DHT22;32202;48.780;9.204;2023-04-02T02:40:11;9.60;96.50
46488;DHT22;32202;48.780;9.204;2023-04-02T02:42:40;9.60;96.20
46488;DHT22;32202;48.780;9.204;2023-04-02T02:45:12;9.60;96.30
46488;DHT22;32202;48.780;9.204;2023-04-02T02:47:39;9.50;96.20
46488;DHT22;32202;48.780;9.204;2023-04-02T02:50:06;9.50;96.30
46488;DHT22;32202;48.780;9.204;2023-04-02T02:52:35;9.50;96.50
46488;DHT22;32202;48.780;9.204;2023-04-02T02:55:02;9.50;96.60
46488;DHT22;32202;48.780;9.204;2023-04-02T02:57:30;9.40;96.70
46488;DHT22;32202;48.780;9.204;2023-04-02T02:59:58;9.50;96.80
46488;DHT22;32202;48.780;9.204;2023-04-02T03:02:25;9.50;96.90
46488;DHT22;32202;48.780;9.204;2023-04-02T03:04:51;9.50;96.80
46488;DHT22;32202;48.780;9.204;2023-04-02T03:07:18;9.50;96.80
46488;DHT22;32202;48.780;9.204;2023-04-02T03:12:35;9.50;97.10
46488;DHT22;32202;48.780;9.204;2023-04-02T03:15:39;9.50;97.10
46488;DHT22;32202;48.780;9.204;2023-04-02T03:28:06;9.50;97.60
46488;DHT22;32202;48.780;9.204;2023-04-02T03:30:54;9.60;97.60
46488;DHT22;32202;48.780;9.204;2023-04-02T03:41:30;9.60;97.60
46488;DHT22;32202;48.780;9.204;2023-04-02T03:43:58;9.60;97.60
46488;DHT22;32202;48.780;9.204;2023-04-02T03:46:26;9.50;98.20
46488;DHT22;32202;48.780;9.204;2023-04-02T03:48:53;9.40;98.40
46488;DHT22;32202;48.780;9.204;2023-04-02T03:51:42;9.40;98.50
46488;DHT22;32202;48.780;9.204;2023-04-02T03:54:10;9.40;98.60
46488;DHT22;32202;48.780;9.204;2023-04-02T03:56:37;9.40;98.70
46488;DHT22;32202;48.780;9.204;2023-04-02T04:01:36;9.40;98.80
46488;DHT22;32202;48.780;9.204;2023-04-02T04:04:09;9.40;98.80
46488;DHT22;32202;48.780;9.204;2023-04-02T04:06:39;9.40;98.70
46488;DHT22;32202;48.780;9.204;2023-04-02T04:09:09;9.40;98.80
46488;DHT22;32202;48.780;9.204;2023-04-02T04:11:36;9.40;98.70
46488;DHT22;32202;48.780;9.204;2023-04-02T04:14:08;9.40;98.70
46488;DHT22;32202;48.780;9.204;2023-04-02T04:16:45;9.40;98.70
46488;DHT22;32202;48.780;9.204;2023-04-02T04:22:07;9.40;98.80
46488;DHT22;32202;48.780;9.204;2023-04-02T04:24:33;9.30;98.80
46488;DHT22;32202;48.780;9.204;2023-04-02T04:27:22;9.30;99.00
46488;DHT22;32202;48.780;9.204;2023-04-02T04:34:44;9.30;99.30
46488;DHT22;32202;48.780;9.204;2023-04-02T04:37:23;9.30;99.30
46488;DHT22;32202;48.780;9.204;2023-04-02T04:39:51;9.40;99.40
46488;DHT22;32202;48.780;9.204;2023-04-02T04:42:19;9.30;99.30
46488;DHT22;32202;48.780;9.204;2023-04-02T04:47:19;9.40;99.50
46488;DHT22;32202;48.780;9.204;2023-04-02T04:52:18;9.30;99.60
46488;DHT22;32202;48.780;9.204;2023-04-02T04:54:45;9.30;99.70
46488;DHT22;32202;48.780;9.204;2023-04-02T04:57:17;9.30;99.70
46488;DHT22;32202;48.780;9.204;2023-04-02T04:59:47;9.40;99.60
46488;DHT22;32202;48.780;9.204;2023-04-02T05:02:19;9.40;99.50
46488;DHT22;32202;48.780;9.204;2023-04-02T05:04:49;9.40;99.70
46488;DHT22;32202;48.780;9.204;2023-04-02T05:07:16;9.40;99.40
46488;DHT22;32202;48.780;9.204;2023-04-02T05:09:46;9.40;99.40
46488;DHT22;32202;48.780;9.204;2023-04-02T05:12:31;9.40;99.60
46488;DHT22;32202;48.780;9.204;2023-04-02T05:15:15;9.50;99.50
46488;DHT22;32202;48.780;9.204;2023-04-02T05:18:29;9.50;99.20
46488;DHT22;32202;48.780;9.204;2023-04-02T05:20:31;9.50;99.10
46488;DHT22;32202;48.780;9.204;2023-04-02T05:23:43;9.50;99.20
46488;DHT22;32202;48.780;9.204;2023-04-02T05:25:50;9.50;99.20
46488;DHT22;32202;48.780;9.204;2023-04-02T05:28:17;9.50;99.30
46488;DHT22;32202;48.780;9.204;2023-04-02T05:30:48;9.50;99.40
46488;DHT22;32202;48.780;9.204;2023-04-02T05:33:21;9.60;99.40
46488;DHT22;32202;48.780;9.204;2023-04-02T05:35:47;9.60;99.10
46488;DHT22;32202;48.780;9.204;2023-04-02T05:38:19;9.60;98.90
46488;DHT22;32202;48.780;9.204;2023-04-02T05:40:45;9.70;99.10
46488;DHT22;32202;48.780;9.204;2023-04-02T05:43:14;9.60;98.90
46488;DHT22;32202;48.780;9.204;2023-04-02T05:45:42;9.60;98.90
46488;DHT22;32202;48.780;9.204;2023-04-02T05:50:39;9.80;98.90
46488;DHT22;32202;48.780;9.204;2023-04-02T05:55:49;9.80;99.50
46488;DHT22;32202;48.780;9.204;2023-04-02T05:58:19;9.70;99.90
46488;DHT22;32202;48.780;9.204;2023-04-02T06:00:52;9.70;99.50
46488;DHT22;32202;48.780;9.204;2023-04-02T06:05:51;9.80;99.60
46488;DHT22;32202;48.780;9.204;2023-04-02T06:08:21;9.80;99.90
46488;DHT22;32202;48.780;9.204;2023-04-02T06:10:59;9.80;99.30
46488;DHT22;32202;48.780;9.204;2023-04-02T06:13:26;9.80;99.30
46488;DHT22;32202;48.780;9.204;2023-04-02T06:15:51;9.80;99.40
46488;DHT22;32202;48.780;9.204;2023-04-02T06:18:18;9.80;99.40
46488;DHT22;32202;48.780;9.204;2023-04-02T06:20:44;9.90;99.40
46488;DHT22;32202;48.780;9.204;2023-04-02T06:23:12;9.80;99.50
46488;DHT22;32202;48.780;9.204;2023-04-02T06:25:41;9.90;99.40
46488;DHT22;32202;48.780;9.204;2023-04-02T06:28:13;9.80;99.80
46488;DHT22;32202;48.780;9.204;2023-04-02T06:30:40;9.90;99.90
46488;DHT22;32202;48.780;9.204;2023-04-02T06:33:07;9.80;99.90
46488;DHT22;32202;48.780;9.204;2023-04-02T06:35:36;9.90;99.90
46488;DHT22;32202;48.780;9.204;2023-04-02T06:38:03;9.90;99.30
46488;DHT22;32202;48.780;9.204;2023-04-02T06:40:34;10.00;99.30
46488;DHT22;32202;48.780;9.204;2023-04-02T06:43:02;10.10;98.80
46488;DHT22;32202;48.780;9.204;2023-04-02T06:45:30;10.20;98.70
46488;DHT22;32202;48.780;9.204;2023-04-02T06:47:57;10.40;97.90
46488;DHT22;32202;48.780;9.204;2023-04-02T06:50:25;10.40;97.00
46488;DHT22;32202;48.780;9.204;2023-04-02T06:52:52;10.30;97.30
46488;DHT22;32202;48.780;9.204;2023-04-02T06:57:44;10.50;97.10
46488;DHT22;32202;48.780;9.204;2023-04-02T07:00:52;10.70;96.40
46488;DHT22;32202;48.780;9.204;2023-04-02T07:02:58;10.80;95.90
46488;DHT22;32202;48.780;9.204;2023-04-02T07:05:25;10.90;95.60
46488;DHT22;32202;48.780;9.204;2023-04-02T07:07:51;10.90;95.60
46488;DHT22;32202;48.780;9.204;2023-04-02T07:10:16;10.90;95.60
46488;DHT22;32202;48.780;9.204;2023-04-02T07:12:44;11.00;95.10
46488;DHT22;32202;48.780;9.204;2023-04-02T07:15:13;11.10;94.90
46488;DHT22;32202;48.780;9.204;2023-04-02T07:17:39;11.20;94.60
46488;DHT22;32202;48.780;9.204;2023-04-02T07:20:05;11.30;94.30
46488;DHT22;32202;48.780;9.204;2023-04-02T07:22:31;11.50;93.60
46488;DHT22;32202;48.780;9.204;2023-04-02T07:24:56;11.60;93.10
46488;DHT22;32202;48.780;9.204;2023-04-02T07:27:23;11.70;92.60
46488;DHT22;32202;48.780;9.204;2023-04-02T07:29:48;11.70;92.40
46488;DHT22;32202;48.780;9.204;2023-04-02T07:32:13;11.70;92.20
46488;DHT22;32202;48.780;9.204;2023-04-02T07:34:39;11.80;91.90
46488;DHT22;32202;48.780;9.204;2023-04-02T07:37:05;11.80;92.10
46488;DHT22;32202;48.780;9.204;2023-04-02T07:39:31;11.90;91.80
46488;DHT22;32202;48.780;9.204;2023-04-02T07:41:57;11.90;91.40
46488;DHT22;32202;48.780;9.204;2023-04-02T07:44:23;11.90;91.00
46488;DHT22;32202;48.780;9.204;2023-04-02T07:46:48;11.90;91.00
46488;DHT22;32202;48.780;9.204;2023-04-02T07:49:14;11.90;91.30
46488;DHT22;32202;48.780;9.204;2023-04-02T07:51:40;11.90;91.50
46488;DHT22;32202;48.780;9.204;2023-04-02T07:54:05;11.90;91.30
46488;DHT22;32202;48.780;9.204;2023-04-02T07:56:31;11.80;91.70
46488;DHT22;32202;48.780;9.204;2023-04-02T07:58:57;11.80;91.70
46488;DHT22;32202;48.780;9.204;2023-04-02T08:01:23;11.90;92.00
46488;DHT22;32202;48.780;9.204;2023-04-02T08:03:50;11.80;92.30
46488;DHT22;32202;48.780;9.204;2023-04-02T08:06:15;11.90;92.20
46488;DHT22;32202;48.780;9.204;2023-04-02T08:08:41;12.00;92.20
46488;DHT22;32202;48.780;9.204;2023-04-02T08:11:07;12.10;91.70
46488;DHT22;32202;48.780;9.204;2023-04-02T08:13:32;12.10;91.50
46488;DHT22;32202;48.780;9.204;2023-04-02T08:15:58;12.10;91.50
46488;DHT22;32202;48.780;9.204;2023-04-02T08:18:24;12.10;91.20
46488;DHT22;32202;48.780;9.204;2023-04-02T08:20:51;12.00;91.20
46488;DHT22;32202;48.780;9.204;2023-04-02T08:23:17;12.00;91.40
46488;DHT22;32202;48.780;9.204;2023-04-02T08:25:46;11.90;91.70
46488;DHT22;32202;48.780;9.204;2023-04-02T08:28:11;11.90;91.80
46488;DHT22;32202;48.780;9.204;2023-04-02T08:30:37;11.90;92.10
46488;DHT22;32202;48.780;9.204;2023-04-02T08:33:03;11.90;92.20
46488;DHT22;32202;48.780;9.204;2023-04-02T08:35:28;12.00;92.10
46488;DHT22;32202;48.780;9.204;2023-04-02T08:37:54;12.00;91.90
46488;DHT22;32202;48.780;9.204;2023-04-02T08:40:28;12.00;91.80
46488;DHT22;32202;48.780;9.204;2023-04-02T08:43:10;12.10;91.60
46488;DHT22;32202;48.780;9.204;2023-04-02T08:48:23;12.10;91.50
46488;DHT22;32202;48.780;9.204;2023-04-02T08:50:48;12.10;91.20
46488;DHT22;32202;48.780;9.204;2023-04-02T08:53:17;12.20;90.90
46488;DHT22;32202;48.780;9.204;2023-04-02T08:55:59;12.20;90.50
46488;DHT22;32202;48.780;9.204;2023-04-02T09:01:18;12.30;90.40
46488;DHT22;32202;48.780;9.204;2023-04-02T09:03:46;12.30;90.50
46488;DHT22;32202;48.780;9.204;2023-04-02T09:06:12;12.30;90.10
46488;DHT22;32202;48.780;9.204;2023-04-02T09:08:40;12.40;90.20
46488;DHT22;32202;48.780;9.204;2023-04-02T09:13:43;12.50;89.00
46488;DHT22;32202;48.780;9.204;2023-04-02T09:16:12;12.50;88.90
46488;DHT22;32202;48.780;9.204;2023-04-02T09:18:39;12.60;88.80
46488;DHT22;32202;48.780;9.204;2023-04-02T09:21:17;12.70;87.40
46488;DHT22;32202;48.780;9.204;2023-04-02T09:23:47;12.90;87.40
46488;DHT22;32202;48.780;9.204;2023-04-02T09:26:19;13.00;86.90
46488;DHT22;32202;48.780;9.204;2023-04-02T09:28:46;13.20;86.00
46488;DHT22;32202;48.780;9.204;2023-04-02T09:31:18;13.40;85.50
46488;DHT22;32202;48.780;9.204;2023-04-02T09:33:45;13.60;84.30
46488;DHT22;32202;48.780;9.204;2023-04-02T09:36:33;13.70;82.50
46488;DHT22;32202;48.780;9.204;2023-04-02T09:39:00;13.70;81.50
46488;DHT22;32202;48.780;9.204;2023-04-02T09:41:27;13.70;81.70
46488;DHT22;32202;48.780;9.204;2023-04-02T09:44:09;13.70;82.00
46488;DHT22;32202;48.780;9.204;2023-04-02T09:46:35;13.60;80.90
46488;DHT22;32202;48.780;9.204;2023-04-02T09:49:01;13.60;81.40
46488;DHT22;32202;48.780;9.204;2023-04-02T09:51:27;13.50;81.50
46488;DHT22;32202;48.780;9.204;2023-04-02T09:56:29;13.40;82.30
46488;DHT22;32202;48.780;9.204;2023-04-02T10:01:32;13.10;83.40
46488;DHT22;32202;48.780;9.204;2023-04-02T10:03:58;13.20;83.20
46488;DHT22;32202;48.780;9.204;2023-04-02T10:06:24;13.10;83.40
46488;DHT22;32202;48.780;9.204;2023-04-02T10:08:50;13.00;83.30
46488;DHT22;32202;48.780;9.204;2023-04-02T10:11:17;12.90;83.70
46488;DHT22;32202;48.780;9.204;2023-04-02T10:13:56;12.80;84.00
46488;DHT22;32202;48.780;9.204;2023-04-02T10:22:11;13.10;83.00
46488;DHT22;32202;48.780;9.204;2023-04-02T10:24:37;13.30;82.50
46488;DHT22;32202;48.780;9.204;2023-04-02T10:27:10;13.60;81.90
46488;DHT22;32202;48.780;9.204;2023-04-02T10:32:20;13.80;79.80
46488;DHT22;32202;48.780;9.204;2023-04-02T10:40:09;14.40;78.00
46488;DHT22;32202;48.780;9.204;2023-04-02T10:42:37;14.60;77.40
46488;DHT22;32202;48.780;9.204;2023-04-02T10:47:53;15.10;74.30
46488;DHT22;32202;48.780;9.204;2023-04-02T10:53:01;14.90;75.20
46488;DHT22;32202;48.780;9.204;2023-04-02T10:55:29;14.60;75.40
46488;DHT22;32202;48.780;9.204;2023-04-02T10:57:57;14.40;76.60
46488;DHT22;32202;48.780;9.204;2023-04-02T11:00:25;14.30;77.50
46488;DHT22;32202;48.780;9.204;2023-04-02T11:07:54;14.30;77.70
46488;DHT22;32202;48.780;9.204;2023-04-02T11:10:21;14.30;78.10
46488;DHT22;32202;48.780;9.204;2023-04-02T11:12:58;14.10;78.70
46488;DHT22;32202;48.780;9.204;2023-04-02T11:15:25;14.10;78.40
46488;DHT22;32202;48.780;9.204;2023-04-02T11:17:51;14.10;78.40
46488;DHT22;32202;48.780;9.204;2023-04-02T11:21:17;13.90;80.40
46488;DHT22;32202;48.780;9.204;2023-04-02T11:23:12;13.80;81.20
46488;DHT22;32202;48.780;9.204;2023-04-02T11:25:39;13.90;79.80
46488;DHT22;32202;48.780;9.204;2023-04-02T11:28:38;13.90;79.20
46488;DHT22;32202;48.780;9.204;2023-04-02T11:30:57;13.80;78.90
46488;DHT22;32202;48.780;9.204;2023-04-02T11:35:54;13.80;77.50
46488;DHT22;32202;48.780;9.204;2023-04-02T11:40:53;14.30;76.00
46488;DHT22;32202;48.780;9.204;2023-04-02T11:46:04;14.40;74.90
46488;DHT22;32202;48.780;9.204;2023-04-02T11:48:33;14.40;74.80
46488;DHT22;32202;48.780;9.204;2023-04-02T11:51:46;14.40;75.70
46488;DHT22;32202;48.780;9.204;2023-04-02T11:53:47;14.40;76.00
46488;DHT22;32202;48.780;9.204;2023-04-02T11:56:20;14.50;74.50
46488;DHT22;32202;48.780;9.204;2023-04-02T11:59:00;14.70;72.70
46488;DHT22;32202;48.780;9.204;2023-04-02T12:01:32;14.80;72.00
46488;DHT22;32202;48.780;9.204;2023-04-02T12:04:20;14.80;72.60
46488;DHT22;32202;48.780;9.204;2023-04-02T12:09:44;15.10;71.80
46488;DHT22;32202;48.780;9.204;2023-04-02T12:12:22;15.40;69.70
46488;DHT22;32202;48.780;9.204;2023-04-02T12:14:50;15.50;69.40
46488;DHT22;32202;48.780;9.204;2023-04-02T12:19:49;15.60;68.90
46488;DHT22;32202;48.780;9.204;2023-04-02T12:22:19;15.80;68.10
46488;DHT22;32202;48.780;9.204;2023-04-02T12:24:46;15.80;67.60
46488;DHT22;32202;48.780;9.204;2023-04-02T12:27:16;16.00;67.90
46488;DHT22;32202;48.780;9.204;2023-04-02T12:29:42;15.90;67.60
46488;DHT22;32202;48.780;9.204;2023-04-02T12:32:15;15.70;68.00
46488;DHT22;32202;48.780;9.204;2023-04-02T12:34:44;15.70;68.70
46488;DHT22;32202;48.780;9.204;2023-04-02T12:37:15;15.70;68.40
46488;DHT22;32202;48.780;9.204;2023-04-02T12:39:49;15.50;69.00
46488;DHT22;32202;48.780;9.204;2023-04-02T12:42:34;15.30;69.80
46488;DHT22;32202;48.780;9.204;2023-04-02T12:45:00;15.20;70.50
46488;DHT22;32202;48.780;9.204;2023-04-02T12:47:26;15.10;70.10
46488;DHT22;32202;48.780;9.204;2023-04-02T12:49:53;15.10;70.40
46488;DHT22;32202;48.780;9.204;2023-04-02T12:52:20;15.10;70.30
46488;DHT22;32202;48.780;9.204;2023-04-02T12:54:57;15.10;70.70
46488;DHT22;32202;48.780;9.204;2023-04-02T12:59:52;14.90;70.70
46488;DHT22;32202;48.780;9.204;2023-04-02T13:02:18;14.90;70.30
46488;DHT22;32202;48.780;9.204;2023-04-02T13:04:48;14.90;69.50
46488;DHT22;32202;48.780;9.204;2023-04-02T13:07:19;14.90;69.20
46488;DHT22;32202;48.780;9.204;2023-04-02T13:09:48;15.00;68.90
46488;DHT22;32202;48.780;9.204;2023-04-02T13:14:59;15.20;72.00
46488;DHT22;32202;48.780;9.204;2023-04-02T13:17:34;15.30;72.90
46488;DHT22;32202;48.780;9.204;2023-04-02T13:20:25;15.20;73.60
46488;DHT22;32202;48.780;9.204;2023-04-02T13:22:45;15.10;74.30
46488;DHT22;32202;48.780;9.204;2023-04-02T13:25:11;15.00;74.60
46488;DHT22;32202;48.780;9.204;2023-04-02T13:27:36;15.00;75.40
46488;DHT22;32202;48.780;9.204;2023-04-02T13:30:06;14.90;76.00
46488;DHT22;32202;48.780;9.204;2023-04-02T13:32:32;14.90;76.00
46488;DHT22;32202;48.780;9.204;2023-04-02T13:34:58;14.90;75.80
46488;DHT22;32202;48.780;9.204;2023-04-02T13:37:24;14.80;75.90
46488;DHT22;32202;48.780;9.204;2023-04-02T13:39:50;14.60;77.40
46488;DHT22;32202;48.780;9.204;2023-04-02T13:42:15;14.40;79.40
46488;DHT22;32202;48.780;9.204;2023-04-02T13:44:42;14.00;81.30
46488;DHT22;32202;48.780;9.204;2023-04-02T13:47:08;13.90;82.20
46488;DHT22;32202;48.780;9.204;2023-04-02T13:49:37;13.70;83.50
46488;DHT22;32202;48.780;9.204;2023-04-02T13:52:03;13.40;85.00
46488;DHT22;32202;48.780;9.204;2023-04-02T13:54:30;13.30;86.10
46488;DHT22;32202;48.780;9.204;2023-04-02T13:56:57;13.20;87.50
46488;DHT22;32202;48.780;9.204;2023-04-02T13:59:23;13.10;88.60
46488;DHT22;32202;48.780;9.204;2023-04-02T14:01:49;13.00;89.50
46488;DHT22;32202;48.780;9.204;2023-04-02T14:04:20;12.90;90.20
46488;DHT22;32202;48.780;9.204;2023-04-02T14:07:05;12.90;90.80
46488;DHT22;32202;48.780;9.204;2023-04-02T14:14:30;12.60;92.70
46488;DHT22;32202;48.780;9.204;2023-04-02T14:17:08;12.40;93.50
46488;DHT22;32202;48.780;9.204;2023-04-02T14:19:40;12.30;94.50
46488;DHT22;32202;48.780;9.204;2023-04-02T14:24:54;12.10;96.00
46488;DHT22;32202;48.780;9.204;2023-04-02T14:39:53;12.00;96.50
46488;DHT22;32202;48.780;9.204;2023-04-02T14:42:24;12.00;96.70
46488;DHT22;32202;48.780;9.204;2023-04-02T14:44:55;12.00;96.50
46488;DHT22;32202;48.780;9.204;2023-04-02T14:47:26;11.90;96.20
46488;DHT22;32202;48.780;9.204;2023-04-02T14:49:53;11.90;95.90
46488;DHT22;32202;48.780;9.204;2023-04-02T14:52:21;12.00;95.80
46488;DHT22;32202;48.780;9.204;2023-04-02T14:55:04;12.00;96.00
46488;DHT22;32202;48.780;9.204;2023-04-02T14:57:33;12.00;96.20
46488;DHT22;32202;48.780;9.204;2023-04-02T15:00:05;11.90;96.40
46488;DHT22;32202;48.780;9.204;2023-04-02T15:02:39;11.90;96.70
46488;DHT22;32202;48.780;9.204;2023-04-02T15:05:16;11.90;96.80
46488;DHT22;32202;48.780;9.204;2023-04-02T15:07:51;11.80;97.60
46488;DHT22;32202;48.780;9.204;2023-04-02T15:10:23;11.70;97.70
46488;DHT22;32202;48.780;9.204;2023-04-02T15:12:51;11.70;97.50
46488;DHT22;32202;48.780;9.204;2023-04-02T15:17:43;11.70;97.90
46488;DHT22;32202;48.780;9.204;2023-04-02T15:20:13;11.60;98.10
46488;DHT22;32202;48.780;9.204;2023-04-02T15:25:41;11.60;98.50
46488;DHT22;32202;48.780;9.204;2023-04-02T15:30:50;11.40;97.80
46488;DHT22;32202;48.780;9.204;2023-04-02T15:33:27;11.40;97.80
46488;DHT22;32202;48.780;9.204;2023-04-02T15:35:59;11.30;97.70
46488;DHT22;32202;48.780;9.204;2023-04-02T15:38:31;11.40;97.90
46488;DHT22;32202;48.780;9.204;2023-04-02T15:48:20;11.30;98.70
46488;DHT22;32202;48.780;9.204;2023-04-02T15:58:48;11.10;99.40
46488;DHT22;32202;48.780;9.204;2023-04-02T16:01:18;11.00;98.80
46488;DHT22;32202;48.780;9.204;2023-04-02T16:09:06;10.70;98.60
46488;DHT22;32202;48.780;9.204;2023-04-02T16:11:34;10.70;99.20
46488;DHT22;32202;48.780;9.204;2023-04-02T16:14:43;10.70;99.40
46488;DHT22;32202;48.780;9.204;2023-04-02T16:16:49;10.70;99.30
46488;DHT22;32202;48.780;9.204;2023-04-02T16:19:32;10.60;99.70
46488;DHT22;32202;48.780;9.204;2023-04-02T16:22:04;10.60;99.80
46488;DHT22;32202;48.780;9.204;2023-04-02T16:24:31;10.60;99.80
46488;DHT22;32202;48.780;9.204;2023-04-02T16:26:57;10.50;99.90
46488;DHT22;32202;48.780;9.204;2023-04-02T16:29:27;10.50;99.60
46488;DHT22;32202;48.780;9.204;2023-04-02T16:31:58;10.50;99.30
46488;DHT22;32202;48.780;9.204;2023-04-02T16:39:29;10.30;98.40
46488;DHT22;32202;48.780;9.204;2023-04-02T16:42:03;10.20;98.80
46488;DHT22;32202;48.780;9.204;2023-04-02T16:44:42;10.20;97.50
46488;DHT22;32202;48.780;9.204;2023-04-02T16:47:23;10.10;96.90
46488;DHT22;32202;48.780;9.204;2023-04-02T16:50:02;10.10;97.20
46488;DHT22;32202;48.780;9.204;2023-04-02T17:00:28;9.90;97.10
46488;DHT22;32202;48.780;9.204;2023-04-02T17:05:28;9.90;96.80
46488;DHT22;32202;48.780;9.204;2023-04-02T17:08:10;9.90;96.50
46488;DHT22;32202;48.780;9.204;2023-04-02T17:15:52;9.80;96.50
46488;DHT22;32202;48.780;9.204;2023-04-02T17:18:19;9.80;95.80
46488;DHT22;32202;48.780;9.204;2023-04-02T17:20:47;9.70;94.90
46488;DHT22;32202;48.780;9.204;2023-04-02T17:23:14;9.70;95.10
46488;DHT22;32202;48.780;9.204;2023-04-02T17:25:44;9.60;95.10
46488;DHT22;32202;48.780;9.204;2023-04-02T17:28:11;9.50;94.60
46488;DHT22;32202;48.780;9.204;2023-04-02T17:30:43;9.50;94.50
46488;DHT22;32202;48.780;9.204;2023-04-02T17:33:15;9.40;94.70
46488;DHT22;32202;48.780;9.204;2023-04-02T17:35:56;9.40;94.90
46488;DHT22;32202;48.780;9.204;2023-04-02T17:41:22;9.40;94.30
46488;DHT22;32202;48.780;9.204;2023-04-02T17:46:26;9.40;94.70
46488;DHT22;32202;48.780;9.204;2023-04-02T17:48:59;9.30;94.60
46488;DHT22;32202;48.780;9.204;2023-04-02T17:51:47;9.20;94.60
46488;DHT22;32202;48.780;9.204;2023-04-02T17:59:46;8.90;95.00
46488;DHT22;32202;48.780;9.204;2023-04-02T18:07:41;8.70;95.10
46488;DHT22;32202;48.780;9.204;2023-04-02T18:12:49;8.70;95.00
46488;DHT22;32202;48.780;9.204;2023-04-02T18:17:52;8.70;95.00
46488;DHT22;32202;48.780;9.204;2023-04-02T18:22:59;8.60;95.10
46488;DHT22;32202;48.780;9.204;2023-04-02T18:25:40;8.60;94.80
46488;DHT22;32202;48.780;9.204;2023-04-02T18:35:51;8.50;94.60
46488;DHT22;32202;48.780;9.204;2023-04-02T18:40:58;8.40;94.00
46488;DHT22;32202;48.780;9.204;2023-04-02T18:51:04;8.20;93.80
46488;DHT22;32202;48.780;9.204;2023-04-02T18:53:30;8.20;93.90
46488;DHT22;32202;48.780;9.204;2023-04-02T18:58:29;8.10;93.30
46488;DHT22;32202;48.780;9.204;2023-04-02T19:00:57;8.10;93.30
46488;DHT22;32202;48.780;9.204;2023-04-02T19:03:28;7.90;93.50
46488;DHT22;32202;48.780;9.204;2023-04-02T19:05:59;8.00;93.60
46488;DHT22;32202;48.780;9.204;2023-04-02T19:08:28;7.90;93.00
46488;DHT22;32202;48.780;9.204;2023-04-02T19:10:59;7.80;93.10
46488;DHT22;32202;48.780;9.204;2023-04-02T19:13:26;7.80;93.40
46488;DHT22;32202;48.780;9.204;2023-04-02T19:15:57;7.80;93.00
46488;DHT22;32202;48.780;9.204;2023-04-02T19:20:56;7.70;93.20
46488;DHT22;32202;48.780;9.204;2023-04-02T19:26:07;7.60;91.50
46488;DHT22;32202;48.780;9.204;2023-04-02T19:28:49;7.60;90.90
46488;DHT22;32202;48.780;9.204;2023-04-02T19:33:46;7.50;90.60
46488;DHT22;32202;48.780;9.204;2023-04-02T19:41:34;7.40;90.60
46488;DHT22;32202;48.780;9.204;2023-04-02T19:44:02;7.30;90.60
46488;DHT22;32202;48.780;9.204;2023-04-02T19:46:27;7.30;90.30
46488;DHT22;32202;48.780;9.204;2023-04-02T19:51:38;7.20;90.10
46488;DHT22;32202;48.780;9.204;2023-04-02T19:54:04;7.20;89.50
46488;DHT22;32202;48.780;9.204;2023-04-02T19:56:29;7.10;89.30
46488;DHT22;32202;48.780;9.204;2023-04-02T19:58:55;7.00;89.60
46488;DHT22;32202;48.780;9.204;2023-04-02T20:01:20;6.90;89.40
46488;DHT22;32202;48.780;9.204;2023-04-02T20:03:48;6.90;89.60
46488;DHT22;32202;48.780;9.204;2023-04-02T20:06:14;6.90;89.40
46488;DHT22;32202;48.780;9.204;2023-04-02T20:08:39;6.70;89.20